createdAt,value
2018-12-22T00:00:38.196Z,0.60
2018-12-22T00:03:06.395Z,0.80
2018-12-22T00:05:34.618Z,0.63
2018-12-22T00:08:02.861Z,0.70
2018-12-22T00:10:31.106Z,0.60
2018-12-22T00:12:59.361Z,0.57
2018-12-22T00:15:27.814Z,0.60
2018-12-22T00:17:56.081Z,0.60
2018-12-22T00:20:24.451Z,1.17
2018-12-22T00:22:52.664Z,0.70
2018-12-22T00:25:20.907Z,0.60
2018-12-22T00:27:49.130Z,0.60
2018-12-22T00:30:17.467Z,0.93
2018-12-22T00:32:45.734Z,0.73
2018-12-22T00:35:13.969Z,1.80
2018-12-22T00:37:42.223Z,0.67
2018-12-22T00:40:10.231Z,0.63
2018-12-22T00:42:38.547Z,0.63
2018-12-22T00:45:07.046Z,1.73
2018-12-22T00:47:35.302Z,0.70
2018-12-22T00:50:03.732Z,0.73
2018-12-22T00:52:31.982Z,0.90
2018-12-22T00:55:00.317Z,1.00
2018-12-22T00:57:28.614Z,0.90
2018-12-22T00:59:56.884Z,0.87
2018-12-22T01:02:24.968Z,0.70
2018-12-22T01:04:53.218Z,0.50
2018-12-22T01:07:21.614Z,1.60
2018-12-22T01:09:49.915Z,1.67
2018-12-22T01:12:18.314Z,0.93
2018-12-22T01:14:46.669Z,1.00
2018-12-22T01:17:14.906Z,0.70
2018-12-22T01:19:43.157Z,0.70
2018-12-22T01:22:11.420Z,0.77
2018-12-22T01:24:39.378Z,0.83
2018-12-22T01:27:07.607Z,0.60
2018-12-22T01:29:35.657Z,0.70
2018-12-22T01:32:03.649Z,3.33
2018-12-22T01:34:31.865Z,1.40
2018-12-22T01:37:00.115Z,1.20
2018-12-22T01:39:28.398Z,0.77
2018-12-22T01:41:56.689Z,2.07
2018-12-22T01:44:24.950Z,0.67
2018-12-22T01:46:53.233Z,0.70
2018-12-22T01:49:21.204Z,1.77
2018-12-22T01:51:49.453Z,0.90
2018-12-22T01:54:17.675Z,0.80
2018-12-22T01:56:45.918Z,1.17
2018-12-22T01:59:14.138Z,2.00
2018-12-22T02:01:42.388Z,1.07
2018-12-22T02:04:10.730Z,0.83
2018-12-22T02:06:38.993Z,1.10
2018-12-22T02:09:07.845Z,1.87
2018-12-22T02:11:35.987Z,0.93
2018-12-22T02:14:04.284Z,1.07
2018-12-22T02:16:32.435Z,0.80
2018-12-22T02:19:00.690Z,0.93
2018-12-22T02:21:28.961Z,0.60
2018-12-22T02:23:57.192Z,0.70
2018-12-22T02:26:25.444Z,1.37
2018-12-22T02:28:56.828Z,0.80
2018-12-22T02:31:23.618Z,0.70
2018-12-22T02:33:51.903Z,1.97
2018-12-22T02:36:19.873Z,1.17
2018-12-22T02:38:47.874Z,0.70
2018-12-22T02:41:16.129Z,1.00
2018-12-22T02:43:44.370Z,0.67
2018-12-22T02:46:12.351Z,0.70
2018-12-22T02:48:40.599Z,0.63
2018-12-22T02:51:08.973Z,1.00
2018-12-22T02:53:37.260Z,0.60
2018-12-22T02:59:06.342Z,1.23
2018-12-22T03:04:26.994Z,1.07
2018-12-22T03:06:55.256Z,0.77
2018-12-22T03:09:23.491Z,1.57
2018-12-22T03:12:05.059Z,1.70
2018-12-22T03:14:33.051Z,0.97
2018-12-22T03:17:01.032Z,1.00
2018-12-22T03:19:30.137Z,2.37
2018-12-22T03:21:58.206Z,0.80
2018-12-22T03:24:26.184Z,1.03
2018-12-22T03:26:54.621Z,2.03
2018-12-22T03:29:22.878Z,0.93
2018-12-22T03:34:48.688Z,2.20
2018-12-22T03:37:16.999Z,0.87
2018-12-22T03:39:44.974Z,0.80
2018-12-22T03:42:12.999Z,1.60
2018-12-22T03:44:41.251Z,1.53
2018-12-22T03:47:21.330Z,0.70
2018-12-22T03:49:57.418Z,1.67
2018-12-22T03:55:23.380Z,0.80
2018-12-22T03:57:55.616Z,1.80
2018-12-22T04:00:23.820Z,0.97
2018-12-22T04:02:51.842Z,1.17
2018-12-22T04:05:19.829Z,1.47
2018-12-22T04:07:48.083Z,1.77
2018-12-22T04:10:16.085Z,2.13
2018-12-22T04:12:44.322Z,1.70
2018-12-22T04:15:12.558Z,0.80
2018-12-22T04:17:40.541Z,0.93
2018-12-22T04:20:08.819Z,1.77
2018-12-22T04:22:37.161Z,1.33
2018-12-22T04:25:05.489Z,0.80
2018-12-22T04:27:33.767Z,0.80
2018-12-22T04:30:01.995Z,1.07
2018-12-22T04:32:30.381Z,1.77
2018-12-22T04:34:58.690Z,2.00
2018-12-22T04:37:27.007Z,0.87
2018-12-22T04:42:52.599Z,2.83
2018-12-22T04:45:24.690Z,0.83
2018-12-22T04:47:52.938Z,1.50
2018-12-22T04:50:21.189Z,1.07
2018-12-22T04:52:49.577Z,2.27
2018-12-22T04:55:17.830Z,1.20
2018-12-22T04:57:46.079Z,1.30
2018-12-22T05:00:14.436Z,1.80
2018-12-22T05:02:42.695Z,1.73
2018-12-22T05:05:10.851Z,1.50
2018-12-22T05:07:39.164Z,1.10
2018-12-22T05:10:13.464Z,1.53
2018-12-22T05:12:53.878Z,2.07
2018-12-22T05:15:21.907Z,1.60
2018-12-22T05:17:50.011Z,2.47
2018-12-22T05:20:18.068Z,1.20
2018-12-22T05:25:53.894Z,2.07
2018-12-22T05:28:27.840Z,1.73
2018-12-22T05:30:56.112Z,1.13
2018-12-22T05:33:24.445Z,0.73
2018-12-22T05:35:52.830Z,0.80
2018-12-22T05:38:21.121Z,0.90
2018-12-22T05:40:49.478Z,1.03
2018-12-22T05:43:17.658Z,1.53
2018-12-22T05:45:45.913Z,1.60
2018-12-22T05:48:14.142Z,1.73
2018-12-22T05:53:40.347Z,1.83
2018-12-22T05:56:08.672Z,1.87
2018-12-22T05:58:36.938Z,2.33
2018-12-22T06:01:05.243Z,3.87
2018-12-22T06:03:33.455Z,1.30
2018-12-22T06:06:01.730Z,2.27
2018-12-22T06:08:29.949Z,1.70
2018-12-22T06:10:58.197Z,1.30
2018-12-22T06:13:26.438Z,1.50
2018-12-22T06:15:54.793Z,1.77
2018-12-22T06:18:23.042Z,1.80
2018-12-22T06:20:51.270Z,1.93
2018-12-22T06:23:19.489Z,1.13
2018-12-22T06:25:47.690Z,4.53
2018-12-22T06:28:15.940Z,1.83
2018-12-22T06:30:44.291Z,2.17
2018-12-22T06:33:12.639Z,2.07
2018-12-22T06:35:40.902Z,1.40
2018-12-22T06:38:09.273Z,1.27
2018-12-22T06:40:37.625Z,0.90
2018-12-22T06:43:05.975Z,1.10
2018-12-22T06:45:34.232Z,1.73
2018-12-22T06:48:02.613Z,2.00
2018-12-22T06:53:32.803Z,0.73
2018-12-22T06:56:04.534Z,2.57
2018-12-22T06:58:32.785Z,1.43
2018-12-22T07:01:01.081Z,2.10
2018-12-22T07:03:29.598Z,0.83
2018-12-22T07:05:58.896Z,0.67
2018-12-22T07:08:27.255Z,0.70
2018-12-22T07:10:55.766Z,0.97
2018-12-22T07:13:24.046Z,1.47
2018-12-22T07:15:52.364Z,1.77
2018-12-22T07:18:21.184Z,1.40
2018-12-22T07:20:49.784Z,2.20
2018-12-22T07:26:15.804Z,2.43
2018-12-22T07:28:44.121Z,2.30
2018-12-22T07:31:12.694Z,1.37
2018-12-22T07:33:49.020Z,0.70
2018-12-22T07:36:17.364Z,1.80
2018-12-22T07:38:45.577Z,0.70
2018-12-22T07:41:13.786Z,0.60
2018-12-22T07:43:42.239Z,0.80
2018-12-22T07:46:10.449Z,1.23
2018-12-22T07:48:38.665Z,0.67
2018-12-22T07:51:06.925Z,0.80
2018-12-22T07:53:35.201Z,0.60
2018-12-22T07:56:03.438Z,0.60
2018-12-22T07:58:31.627Z,0.97
2018-12-22T08:00:59.861Z,1.17
2018-12-22T08:03:28.090Z,1.60
2018-12-22T08:05:56.274Z,0.80
2018-12-22T08:08:24.630Z,0.80
2018-12-22T08:10:52.799Z,0.90
2018-12-22T08:13:20.982Z,0.80
2018-12-22T08:15:49.193Z,0.83
2018-12-22T08:18:17.736Z,0.80
2018-12-22T08:20:45.981Z,1.70
2018-12-22T08:23:14.202Z,0.70
2018-12-22T08:25:42.374Z,0.80
2018-12-22T08:28:10.566Z,0.97
2018-12-22T08:30:43.468Z,1.70
2018-12-22T08:33:08.922Z,1.53
2018-12-22T08:35:37.430Z,2.10
2018-12-22T08:38:05.949Z,1.60
2018-12-22T08:40:34.256Z,1.00
2018-12-22T08:43:02.481Z,1.80
2018-12-22T08:45:30.661Z,0.80
2018-12-22T08:47:58.901Z,1.27
2018-12-22T08:50:27.245Z,1.07
2018-12-22T08:52:55.448Z,1.00
2018-12-22T08:55:23.798Z,0.93
2018-12-22T08:57:52.085Z,1.07
2018-12-22T09:00:20.352Z,1.70
2018-12-22T09:02:48.575Z,0.80
2018-12-22T09:05:16.798Z,0.80
2018-12-22T09:07:44.990Z,0.60
2018-12-22T09:10:13.279Z,2.37
2018-12-22T09:12:41.486Z,2.30
2018-12-22T09:15:09.914Z,1.47
2018-12-22T09:17:38.121Z,1.43
2018-12-22T09:20:09.268Z,0.80
2018-12-22T09:22:37.761Z,1.83
2018-12-22T09:25:07.428Z,1.10
2018-12-22T09:27:35.727Z,1.30
2018-12-22T09:30:05.714Z,1.07
2018-12-22T09:32:33.962Z,1.73
2018-12-22T09:35:02.162Z,1.13
2018-12-22T09:37:30.385Z,1.00
2018-12-22T09:39:58.628Z,0.93
2018-12-22T09:42:26.921Z,1.50
2018-12-22T09:44:55.178Z,0.80
2018-12-22T09:47:23.394Z,1.37
2018-12-22T09:49:51.602Z,2.43
2018-12-22T09:52:19.870Z,0.60
2018-12-22T09:54:48.082Z,0.87
2018-12-22T09:57:16.281Z,1.23
2018-12-22T09:59:44.502Z,1.37
2018-12-22T10:02:12.673Z,0.90
2018-12-22T10:04:40.907Z,1.00
2018-12-22T10:07:09.114Z,0.80
2018-12-22T10:09:37.328Z,1.27
2018-12-22T10:12:05.521Z,0.70
2018-12-22T10:14:33.745Z,0.60
2018-12-22T10:17:01.937Z,2.63
2018-12-22T10:19:30.159Z,1.73
2018-12-22T10:21:58.490Z,1.37
2018-12-22T10:24:26.821Z,1.03
2018-12-22T10:26:55.066Z,2.47
2018-12-22T10:29:23.286Z,1.77
2018-12-22T10:31:51.488Z,3.60
2018-12-22T10:34:19.804Z,1.60
2018-12-22T10:36:48.018Z,1.47
2018-12-22T10:39:16.225Z,2.07
2018-12-22T10:41:44.438Z,1.70
2018-12-22T10:44:12.707Z,4.30
2018-12-22T10:46:40.973Z,2.27
2018-12-22T10:49:09.335Z,2.07
2018-12-22T10:51:37.695Z,2.10
2018-12-22T10:54:06.355Z,1.57
2018-12-22T10:56:34.580Z,2.80
2018-12-22T10:59:02.906Z,4.43
2018-12-22T11:01:31.201Z,2.37
2018-12-22T11:03:59.541Z,3.50
2018-12-22T11:06:28.459Z,3.50
2018-12-22T11:08:56.823Z,2.83
2018-12-22T11:11:25.127Z,2.60
2018-12-22T11:13:53.418Z,2.93
2018-12-22T11:16:21.792Z,3.17
2018-12-22T11:18:56.532Z,4.10
2018-12-22T11:21:24.917Z,1.73
2018-12-22T11:23:53.278Z,3.23
2018-12-22T11:26:21.540Z,6.30
2018-12-22T11:28:49.948Z,4.20
2018-12-22T11:31:18.183Z,6.43
2018-12-22T11:33:46.466Z,1.97
2018-12-22T11:36:15.297Z,1.90
2018-12-22T11:38:44.300Z,4.37
2018-12-22T11:41:13.073Z,4.83
2018-12-22T11:43:41.294Z,5.13
2018-12-22T11:46:09.949Z,5.70
2018-12-22T11:49:21.745Z,3.97
2018-12-22T11:51:50.585Z,4.97
2018-12-22T11:54:18.932Z,3.93
2018-12-22T11:56:48.061Z,1.27
2018-12-22T11:59:16.394Z,3.60
2018-12-22T12:01:44.645Z,2.00
2018-12-22T12:04:12.865Z,3.57
2018-12-22T12:06:41.094Z,3.73
2018-12-22T12:09:09.815Z,4.07
2018-12-22T12:11:37.765Z,2.50
2018-12-22T12:14:06.005Z,2.03
2018-12-22T12:16:51.480Z,2.97
2018-12-22T12:19:28.874Z,2.17
2018-12-22T12:21:57.186Z,2.80
2018-12-22T12:24:25.873Z,2.97
2018-12-22T12:26:54.277Z,3.93
2018-12-22T12:29:22.505Z,1.10
2018-12-22T12:31:52.271Z,3.03
2018-12-22T12:34:20.845Z,3.07
2018-12-22T12:36:49.054Z,2.13
2018-12-22T12:39:17.573Z,2.00
2018-12-22T12:41:47.606Z,3.87
2018-12-22T12:44:16.095Z,3.07
2018-12-22T12:46:48.405Z,1.73
2018-12-22T12:49:17.990Z,1.90
2018-12-22T12:51:46.556Z,3.40
2018-12-22T12:54:15.771Z,3.60
2018-12-22T12:56:54.841Z,1.17
2018-12-22T12:59:23.393Z,2.67
2018-12-22T13:02:00.661Z,3.80
2018-12-22T13:04:22.419Z,3.60
2018-12-22T13:06:50.614Z,3.13
2018-12-22T13:09:18.857Z,4.13
2018-12-22T13:11:48.051Z,4.03
2018-12-22T13:14:19.999Z,3.13
2018-12-22T13:16:48.314Z,1.50
2018-12-22T13:19:17.530Z,3.10
2018-12-22T13:21:51.599Z,3.13
2018-12-22T13:24:21.112Z,1.90
2018-12-22T13:26:49.846Z,0.83
2018-12-22T13:29:18.209Z,3.97
2018-12-22T13:31:46.767Z,4.50
2018-12-22T13:34:15.244Z,1.97
2018-12-22T13:36:43.748Z,5.00
2018-12-22T13:39:15.798Z,2.33
2018-12-22T13:41:44.110Z,2.00
2018-12-22T13:44:12.325Z,2.70
2018-12-22T13:46:40.499Z,3.43
2018-12-22T13:49:08.822Z,1.97
2018-12-22T13:51:38.355Z,3.50
2018-12-22T13:54:07.974Z,3.87
2018-12-22T13:56:36.251Z,3.17
2018-12-22T13:59:04.445Z,1.73
2018-12-22T14:01:36.342Z,2.73
2018-12-22T14:04:04.627Z,2.07
2018-12-22T14:06:36.617Z,2.17
2018-12-22T14:09:07.082Z,7.10
2018-12-22T14:11:35.361Z,5.23
2018-12-22T14:14:03.717Z,7.23
2018-12-22T14:16:38.107Z,3.00
2018-12-22T14:19:08.198Z,3.23
2018-12-22T14:21:36.699Z,2.30
2018-12-22T14:25:10.677Z,5.40
2018-12-22T14:27:38.886Z,2.53
2018-12-22T14:30:10.158Z,3.57
2018-12-22T14:32:38.331Z,4.30
2018-12-22T14:35:16.142Z,2.07
2018-12-22T14:37:44.427Z,1.93
2018-12-22T14:40:12.623Z,4.63
2018-12-22T14:42:40.822Z,5.77
2018-12-22T14:45:10.725Z,4.97
2018-12-22T14:47:39.001Z,6.60
2018-12-22T14:50:09.227Z,6.40
2018-12-22T14:52:37.527Z,4.90
2018-12-22T14:55:06.541Z,4.67
2018-12-22T14:57:39.706Z,2.70
2018-12-22T15:00:09.383Z,2.93
2018-12-22T15:02:37.690Z,7.00
2018-12-22T15:05:06.220Z,6.60
2018-12-22T15:07:34.418Z,3.37
2018-12-22T15:10:02.801Z,3.80
2018-12-22T15:12:31.005Z,3.80
2018-12-22T15:14:59.189Z,8.10
2018-12-22T15:17:27.386Z,5.07
2018-12-22T15:19:55.578Z,4.30
2018-12-22T15:22:23.804Z,4.63
2018-12-22T15:24:51.962Z,5.90
2018-12-22T15:27:20.169Z,4.03
2018-12-22T15:29:48.370Z,2.87
2018-12-22T15:32:16.574Z,3.63
2018-12-22T15:34:44.733Z,5.30
2018-12-22T15:37:12.946Z,5.97
2018-12-22T15:39:41.111Z,8.27
2018-12-22T15:42:09.314Z,9.17
2018-12-22T15:44:37.478Z,6.23
2018-12-22T15:47:05.793Z,10.77
2018-12-22T15:49:34.842Z,6.10
2018-12-22T15:52:03.066Z,6.53
2018-12-22T15:54:31.230Z,9.77
2018-12-22T15:57:00.978Z,5.10
2018-12-22T15:59:30.105Z,6.63
2018-12-22T16:02:19.240Z,5.80
2018-12-22T16:04:47.493Z,8.10
2018-12-22T16:07:15.698Z,4.70
2018-12-22T16:09:43.871Z,3.97
2018-12-22T16:12:12.066Z,3.77
2018-12-22T16:14:40.262Z,2.80
2018-12-22T16:17:08.625Z,4.47
2018-12-22T16:19:36.806Z,2.77
2018-12-22T16:22:05.074Z,4.83
2018-12-22T16:24:33.262Z,4.50
2018-12-22T16:27:01.442Z,8.07
2018-12-22T16:29:34.334Z,7.10
2018-12-22T16:32:02.603Z,5.70
2018-12-22T16:34:31.161Z,5.57
2018-12-22T16:36:59.430Z,3.27
2018-12-22T16:39:27.710Z,4.70
2018-12-22T16:41:55.906Z,5.30
2018-12-22T16:44:24.166Z,6.30
2018-12-22T16:46:52.327Z,5.83
2018-12-22T16:49:20.434Z,6.87
2018-12-22T16:51:48.563Z,3.47
2018-12-22T16:54:16.740Z,8.27
2018-12-22T16:56:44.962Z,3.67
2018-12-22T16:59:13.078Z,5.17
2018-12-22T17:02:00.545Z,6.97
2018-12-22T17:04:28.668Z,4.70
2018-12-22T17:06:56.865Z,3.30
2018-12-22T17:09:24.966Z,5.57
2018-12-22T17:11:53.180Z,3.67
2018-12-22T17:14:21.307Z,3.67
2018-12-22T17:16:49.732Z,6.60
2018-12-22T17:19:17.945Z,3.83
2018-12-22T17:22:22.647Z,5.80
2018-12-22T17:24:54.627Z,5.03
2018-12-22T17:27:23.034Z,4.33
2018-12-22T17:29:51.358Z,2.73
2018-12-22T17:32:19.466Z,5.23
2018-12-22T17:34:47.734Z,5.50
2018-12-22T17:37:17.003Z,3.27
2018-12-22T17:39:45.322Z,3.00
2018-12-22T17:42:13.590Z,4.30
2018-12-22T17:44:41.770Z,3.73
2018-12-22T17:47:09.919Z,2.87
2018-12-22T17:49:38.501Z,4.33
2018-12-22T17:52:06.730Z,5.67
2018-12-22T17:54:34.955Z,3.87
2018-12-22T17:57:03.227Z,3.60
2018-12-22T17:59:31.332Z,3.23
2018-12-22T18:01:59.755Z,4.30
2018-12-22T18:04:27.889Z,2.40
2018-12-22T18:06:56.023Z,2.93
2018-12-22T18:09:24.222Z,2.10
2018-12-22T18:11:52.383Z,5.07
2018-12-22T18:14:20.493Z,5.80
2018-12-22T18:16:48.626Z,7.77
2018-12-22T18:19:16.967Z,3.13
2018-12-22T18:21:46.855Z,4.00
2018-12-22T18:24:15.096Z,4.83
2018-12-22T18:26:43.384Z,5.77
2018-12-22T18:29:11.565Z,2.20
2018-12-22T18:31:39.803Z,3.00
2018-12-22T18:34:07.974Z,3.83
2018-12-22T18:36:38.231Z,4.20
2018-12-22T18:39:07.208Z,3.57
2018-12-22T18:41:35.582Z,3.73
2018-12-22T18:44:03.870Z,5.50
2018-12-22T18:46:32.092Z,3.27
2018-12-22T18:49:00.393Z,5.60
2018-12-22T18:51:28.674Z,2.90
2018-12-22T18:53:57.419Z,1.63
2018-12-22T18:56:25.769Z,4.20
2018-12-22T18:58:54.774Z,6.47
2018-12-22T19:01:22.963Z,4.90
2018-12-22T19:03:51.143Z,3.60
2018-12-22T19:06:19.432Z,2.93
2018-12-22T19:08:48.619Z,5.30
2018-12-22T19:11:18.889Z,3.77
2018-12-22T19:13:47.078Z,6.73
2018-12-22T19:16:15.286Z,3.93
2018-12-22T19:18:43.454Z,4.53
2018-12-22T19:21:11.666Z,3.93
2018-12-22T19:23:39.850Z,3.80
2018-12-22T19:26:08.075Z,3.57
2018-12-22T19:28:36.283Z,4.57
2018-12-22T19:31:04.495Z,3.07
2018-12-22T19:33:32.771Z,2.93
2018-12-22T19:36:00.991Z,6.07
2018-12-22T19:38:29.167Z,5.77
2018-12-22T19:40:57.447Z,4.23
2018-12-22T19:43:25.630Z,3.73
2018-12-22T19:45:53.926Z,5.97
2018-12-22T19:48:22.130Z,6.57
2018-12-22T19:50:50.571Z,3.30
2018-12-22T19:53:18.749Z,6.40
2018-12-22T19:55:46.971Z,4.77
2018-12-22T19:58:15.145Z,5.17
2018-12-22T20:00:43.350Z,3.93
2018-12-22T20:03:11.795Z,6.27
2018-12-22T20:05:40.000Z,4.23
2018-12-22T20:08:08.190Z,8.57
2018-12-22T20:10:36.381Z,7.60
2018-12-22T20:13:04.602Z,7.37
2018-12-22T20:15:32.763Z,4.63
2018-12-22T20:18:00.954Z,4.67
2018-12-22T20:20:29.718Z,4.33
2018-12-22T20:22:58.118Z,5.93
2018-12-22T20:25:26.297Z,4.93
2018-12-22T20:27:54.486Z,4.53
2018-12-22T20:30:22.654Z,5.90
2018-12-22T20:32:50.847Z,2.90
2018-12-22T20:35:19.021Z,7.57
2018-12-22T20:37:47.336Z,5.10
2018-12-22T20:40:15.515Z,5.43
2018-12-22T20:42:43.697Z,6.57
2018-12-22T20:45:11.894Z,6.83
2018-12-22T20:47:40.068Z,8.43
2018-12-22T20:50:08.434Z,6.77
2018-12-22T20:52:36.613Z,6.50
2018-12-22T20:55:05.080Z,4.97
2018-12-22T20:57:33.297Z,3.13
2018-12-22T21:00:01.540Z,5.70
2018-12-22T21:02:29.577Z,7.97
2018-12-22T21:04:58.194Z,4.27
2018-12-22T21:07:26.397Z,3.83
2018-12-22T21:09:54.718Z,8.33
2018-12-22T21:12:22.884Z,4.97
2018-12-22T21:14:51.069Z,8.70
2018-12-22T21:17:19.237Z,3.63
2018-12-22T21:19:47.654Z,3.60
2018-12-22T21:22:15.948Z,4.37
2018-12-22T21:24:44.168Z,3.77
2018-12-22T21:27:12.362Z,4.80
2018-12-22T21:29:40.626Z,4.17
2018-12-22T21:32:08.860Z,4.80
2018-12-22T21:34:37.123Z,6.77
2018-12-22T21:37:05.394Z,4.53
2018-12-22T21:39:33.650Z,4.33
2018-12-22T21:42:01.910Z,4.33
2018-12-22T21:44:30.291Z,6.50
2018-12-22T21:46:58.514Z,7.87
2018-12-22T21:49:26.773Z,4.23
2018-12-22T21:51:54.970Z,5.47
2018-12-22T21:54:23.424Z,5.47
2018-12-22T21:56:51.642Z,7.40
2018-12-22T21:59:19.986Z,7.43
2018-12-22T22:01:49.725Z,8.17
2018-12-22T22:04:20.873Z,7.83
2018-12-22T22:09:46.483Z,5.07
2018-12-22T22:12:14.758Z,9.50
2018-12-22T22:14:42.967Z,4.53
2018-12-22T22:17:11.267Z,7.53
2018-12-22T22:19:39.526Z,4.00
2018-12-22T22:22:07.812Z,7.43
2018-12-22T22:24:36.038Z,7.00
2018-12-22T22:27:04.239Z,4.20
2018-12-22T22:29:32.452Z,6.03
2018-12-22T22:32:00.678Z,6.93
2018-12-22T22:34:28.913Z,9.03
2018-12-22T22:36:57.165Z,5.00
2018-12-22T22:39:25.411Z,6.23
2018-12-22T22:41:53.726Z,5.83
2018-12-22T22:44:21.943Z,6.67
2018-12-22T22:46:50.189Z,6.70
2018-12-22T22:49:37.398Z,6.23
2018-12-22T22:52:05.638Z,7.53
2018-12-22T22:54:33.918Z,6.73
2018-12-22T22:57:02.107Z,8.07
2018-12-22T22:59:30.318Z,8.17
2018-12-22T23:01:58.598Z,12.97
2018-12-22T23:04:26.559Z,8.70
2018-12-22T23:06:54.538Z,6.43
2018-12-22T23:09:22.954Z,8.77
2018-12-22T23:11:51.859Z,5.43
2018-12-22T23:14:20.079Z,12.80
2018-12-22T23:16:48.313Z,9.47
2018-12-22T23:19:16.285Z,7.27
2018-12-22T23:21:44.550Z,7.60
2018-12-22T23:24:12.803Z,8.50
2018-12-22T23:26:40.990Z,10.10
2018-12-22T23:29:08.980Z,6.67
2018-12-22T23:31:37.170Z,10.77
2018-12-22T23:34:05.452Z,9.97
2018-12-22T23:36:33.484Z,7.27
2018-12-22T23:39:01.449Z,5.60
2018-12-22T23:41:29.747Z,10.17
2018-12-22T23:43:57.945Z,7.80
2018-12-22T23:46:26.198Z,6.70
2018-12-22T23:48:54.425Z,6.37
2018-12-22T23:51:22.742Z,12.30
2018-12-22T23:53:50.968Z,7.40
2018-12-22T23:56:19.351Z,8.90
2018-12-22T23:58:47.574Z,9.23
